sensor_id;sensor_type;location;lat;lon;timestamp;pressure;altitude;pressure_sealevel;temperature;humidity
5812;BME280;2932;52.400;9.558;2023-02-20T00:00:32;101656.66;;;9.03;75.35
5812;BME280;2932;52.400;9.558;2023-02-20T00:03:01;101651.13;;;9.03;75.41
5812;BME280;2932;52.400;9.558;2023-02-20T00:05:26;101646.44;;;8.90;75.68
5812;BME280;2932;52.400;9.558;2023-02-20T00:07:52;101648.38;;;9.03;75.55
5812;BME280;2932;52.400;9.558;2023-02-20T00:10:17;101638.47;;;9.25;74.99
5812;BME280;2932;52.400;9.558;2023-02-20T00:12:43;101637.22;;;9.09;75.73
5812;BME280;2932;52.400;9.558;2023-02-20T00:15:09;101639.66;;;8.74;76.22
5812;BME280;2932;52.400;9.558;2023-02-20T00:17:36;101637.41;;;8.76;76.14
5812;BME280;2932;52.400;9.558;2023-02-20T00:20:02;101624.72;;;8.75;76.27
5812;BME280;2932;52.400;9.558;2023-02-20T00:22:27;101632.34;;;8.92;76.04
5812;BME280;2932;52.400;9.558;2023-02-20T00:24:53;101616.81;;;8.96;75.82
5812;BME280;2932;52.400;9.558;2023-02-20T00:27:18;101616.19;;;8.99;75.99
5812;BME280;2932;52.400;9.558;2023-02-20T00:29:45;101617.56;;;8.74;76.30
5812;BME280;2932;52.400;9.558;2023-02-20T00:32:11;101614.38;;;8.81;76.50
5812;BME280;2932;52.400;9.558;2023-02-20T00:34:37;101609.25;;;8.88;75.97
5812;BME280;2932;52.400;9.558;2023-02-20T00:37:03;101608.19;;;8.48;77.60
5812;BME280;2932;52.400;9.558;2023-02-20T00:39:30;101602.78;;;9.28;77.06
5812;BME280;2932;52.400;9.558;2023-02-20T00:41:56;101599.69;;;9.08;75.65
5812;BME280;2932;52.400;9.558;2023-02-20T00:44:22;101583.56;;;9.01;75.70
5812;BME280;2932;52.400;9.558;2023-02-20T00:46:47;101584.63;;;8.91;76.32
5812;BME280;2932;52.400;9.558;2023-02-20T00:49:13;101564.66;;;8.94;76.01
5812;BME280;2932;52.400;9.558;2023-02-20T00:51:38;101574.09;;;8.80;76.69
5812;BME280;2932;52.400;9.558;2023-02-20T00:54:04;101582.75;;;9.23;75.15
5812;BME280;2932;52.400;9.558;2023-02-20T00:56:29;101571.59;;;9.06;76.04
5812;BME280;2932;52.400;9.558;2023-02-20T00:58:55;101566.72;;;8.89;76.28
5812;BME280;2932;52.400;9.558;2023-02-20T01:01:20;101569.25;;;9.21;75.76
5812;BME280;2932;52.400;9.558;2023-02-20T01:03:46;101563.56;;;9.18;75.16
5812;BME280;2932;52.400;9.558;2023-02-20T01:06:11;101560.19;;;8.85;75.46
5812;BME280;2932;52.400;9.558;2023-02-20T01:08:37;101552.00;;;8.93;75.36
5812;BME280;2932;52.400;9.558;2023-02-20T01:11:02;101550.63;;;9.05;75.48
5812;BME280;2932;52.400;9.558;2023-02-20T01:13:27;101551.81;;;8.90;75.59
5812;BME280;2932;52.400;9.558;2023-02-20T01:15:53;101560.13;;;9.12;75.06
5812;BME280;2932;52.400;9.558;2023-02-20T01:18:18;101553.25;;;9.32;74.29
5812;BME280;2932;52.400;9.558;2023-02-20T01:20:43;101554.81;;;9.24;74.26
5812;BME280;2932;52.400;9.558;2023-02-20T01:23:09;101545.91;;;9.50;73.71
5812;BME280;2932;52.400;9.558;2023-02-20T01:25:34;101550.75;;;9.22;74.04
5812;BME280;2932;52.400;9.558;2023-02-20T01:28:00;101540.00;;;9.20;74.17
5812;BME280;2932;52.400;9.558;2023-02-20T01:30:25;101538.25;;;9.24;74.59
5812;BME280;2932;52.400;9.558;2023-02-20T01:32:50;101529.31;;;8.96;75.30
5812;BME280;2932;52.400;9.558;2023-02-20T01:35:16;101516.75;;;9.13;74.45
5812;BME280;2932;52.400;9.558;2023-02-20T01:37:42;101535.97;;;9.18;74.03
5812;BME280;2932;52.400;9.558;2023-02-20T01:40:19;101508.84;;;8.97;74.55
5812;BME280;2932;52.400;9.558;2023-02-20T01:42:46;101503.25;;;8.89;74.76
5812;BME280;2932;52.400;9.558;2023-02-20T01:45:36;101493.78;;;9.03;74.44
5812;BME280;2932;52.400;9.558;2023-02-20T01:48:02;101511.97;;;8.82;74.90
5812;BME280;2932;52.400;9.558;2023-02-20T01:50:40;101494.31;;;9.36;73.81
5812;BME280;2932;52.400;9.558;2023-02-20T01:53:13;101488.91;;;9.00;74.25
5812;BME280;2932;52.400;9.558;2023-02-20T01:55:43;101484.19;;;9.01;74.38
5812;BME280;2932;52.400;9.558;2023-02-20T01:58:14;101471.97;;;9.16;74.23
5812;BME280;2932;52.400;9.558;2023-02-20T02:00:41;101464.00;;;8.92;74.24
5812;BME280;2932;52.400;9.558;2023-02-20T02:03:12;101500.25;;;8.77;75.25
5812;BME280;2932;52.400;9.558;2023-02-20T02:05:42;101470.66;;;8.91;74.75
5812;BME280;2932;52.400;9.558;2023-02-20T02:08:09;101448.09;;;8.66;75.22
5812;BME280;2932;52.400;9.558;2023-02-20T02:11:00;101457.34;;;8.93;75.10
5812;BME280;2932;52.400;9.558;2023-02-20T02:13:29;101464.81;;;8.92;74.61
5812;BME280;2932;52.400;9.558;2023-02-20T02:19:20;101440.66;;;8.98;74.54
5812;BME280;2932;52.400;9.558;2023-02-20T02:36:36;101413.75;;;9.03;73.76
5812;BME280;2932;52.400;9.558;2023-02-20T02:41:45;101404.66;;;8.81;74.56
5812;BME280;2932;52.400;9.558;2023-02-20T02:44:43;101394.44;;;8.81;74.77
5812;BME280;2932;52.400;9.558;2023-02-20T02:47:15;101386.09;;;8.95;74.62
5812;BME280;2932;52.400;9.558;2023-02-20T02:52:28;101388.31;;;8.84;74.84
5812;BME280;2932;52.400;9.558;2023-02-20T02:55:11;101381.41;;;8.95;74.67
5812;BME280;2932;52.400;9.558;2023-02-20T02:57:37;101381.69;;;8.63;75.32
5812;BME280;2932;52.400;9.558;2023-02-20T03:02:36;101364.06;;;9.03;74.77
5812;BME280;2932;52.400;9.558;2023-02-20T03:05:07;101362.22;;;9.30;74.02
5812;BME280;2932;52.400;9.558;2023-02-20T03:07:36;101366.91;;;8.90;74.23
5812;BME280;2932;52.400;9.558;2023-02-20T03:10:07;101354.75;;;8.91;74.61
5812;BME280;2932;52.400;9.558;2023-02-20T03:12:35;101354.66;;;9.05;74.31
5812;BME280;2932;52.400;9.558;2023-02-20T03:15:11;101364.63;;;9.14;74.26
5812;BME280;2932;52.400;9.558;2023-02-20T03:18:24;101349.31;;;9.08;74.19
5812;BME280;2932;52.400;9.558;2023-02-20T03:20:56;101349.78;;;9.01;74.29
5812;BME280;2932;52.400;9.558;2023-02-20T03:23:26;101355.38;;;9.27;73.73
5812;BME280;2932;52.400;9.558;2023-02-20T03:26:00;101352.16;;;9.34;73.44
5812;BME280;2932;52.400;9.558;2023-02-20T03:28:40;101337.19;;;9.18;73.63
5812;BME280;2932;52.400;9.558;2023-02-20T03:31:11;101348.00;;;9.06;74.01
5812;BME280;2932;52.400;9.558;2023-02-20T03:33:51;101332.03;;;9.33;73.54
5812;BME280;2932;52.400;9.558;2023-02-20T03:39:52;101304.94;;;9.53;72.91
5812;BME280;2932;52.400;9.558;2023-02-20T03:42:41;101317.28;;;9.64;73.00
5812;BME280;2932;52.400;9.558;2023-02-20T03:45:27;101319.22;;;9.46;72.82
5812;BME280;2932;52.400;9.558;2023-02-20T03:47:58;101319.91;;;9.69;72.44
5812;BME280;2932;52.400;9.558;2023-02-20T03:50:25;101310.09;;;9.37;73.30
5812;BME280;2932;52.400;9.558;2023-02-20T03:52:50;101317.16;;;9.69;72.80
5812;BME280;2932;52.400;9.558;2023-02-20T03:55:16;101309.34;;;9.62;72.88
5812;BME280;2932;52.400;9.558;2023-02-20T03:57:46;101317.13;;;9.52;73.25
5812;BME280;2932;52.400;9.558;2023-02-20T04:00:19;101315.47;;;9.42;73.29
5812;BME280;2932;52.400;9.558;2023-02-20T04:02:47;101318.94;;;9.74;72.72
5812;BME280;2932;52.400;9.558;2023-02-20T04:05:20;101310.31;;;9.49;72.85
5812;BME280;2932;52.400;9.558;2023-02-20T04:10:37;101295.38;;;9.59;73.20
5812;BME280;2932;52.400;9.558;2023-02-20T04:13:04;101267.56;;;9.47;73.55
5812;BME280;2932;52.400;9.558;2023-02-20T04:15:31;101288.53;;;9.65;73.38
5812;BME280;2932;52.400;9.558;2023-02-20T04:18:05;101284.81;;;9.78;72.83
5812;BME280;2932;52.400;9.558;2023-02-20T04:20:31;101280.25;;;9.65;73.08
5812;BME280;2932;52.400;9.558;2023-02-20T04:23:01;101272.09;;;9.34;73.80
5812;BME280;2932;52.400;9.558;2023-02-20T04:28:04;101248.41;;;9.67;72.68
5812;BME280;2932;52.400;9.558;2023-02-20T04:30:30;101236.06;;;9.91;72.09
5812;BME280;2932;52.400;9.558;2023-02-20T04:32:57;101236.22;;;9.68;72.39
5812;BME280;2932;52.400;9.558;2023-02-20T04:35:23;101232.00;;;9.54;72.98
5812;BME280;2932;52.400;9.558;2023-02-20T04:37:48;101214.91;;;9.78;72.71
5812;BME280;2932;52.400;9.558;2023-02-20T04:40:17;101215.41;;;9.80;72.30
5812;BME280;2932;52.400;9.558;2023-02-20T04:42:43;101208.91;;;9.84;72.93
5812;BME280;2932;52.400;9.558;2023-02-20T04:45:08;101203.06;;;9.68;72.56
5812;BME280;2932;52.400;9.558;2023-02-20T04:47:33;101216.06;;;9.94;72.35
5812;BME280;2932;52.400;9.558;2023-02-20T04:49:59;101211.03;;;9.79;72.31
5812;BME280;2932;52.400;9.558;2023-02-20T04:52:24;101205.34;;;9.58;73.36
5812;BME280;2932;52.400;9.558;2023-02-20T04:54:50;101220.09;;;9.36;74.18
5812;BME280;2932;52.400;9.558;2023-02-20T04:57:16;101224.50;;;9.37;74.47
5812;BME280;2932;52.400;9.558;2023-02-20T04:59:42;101227.25;;;9.63;74.42
5812;BME280;2932;52.400;9.558;2023-02-20T05:02:07;101227.94;;;9.51;73.99
5812;BME280;2932;52.400;9.558;2023-02-20T05:04:33;101230.03;;;9.54;74.54
5812;BME280;2932;52.400;9.558;2023-02-20T05:06:59;101228.25;;;9.58;74.20
5812;BME280;2932;52.400;9.558;2023-02-20T05:09:24;101241.59;;;9.56;74.13
5812;BME280;2932;52.400;9.558;2023-02-20T05:11:49;101225.66;;;9.79;73.89
5812;BME280;2932;52.400;9.558;2023-02-20T05:14:15;101221.75;;;9.54;74.30
5812;BME280;2932;52.400;9.558;2023-02-20T05:16:41;101221.75;;;9.72;74.78
5812;BME280;2932;52.400;9.558;2023-02-20T05:19:07;101233.78;;;9.58;74.19
5812;BME280;2932;52.400;9.558;2023-02-20T05:21:33;101220.94;;;9.45;74.61
5812;BME280;2932;52.400;9.558;2023-02-20T05:24:18;101223.84;;;9.75;73.85
5812;BME280;2932;52.400;9.558;2023-02-20T05:26:43;101221.13;;;9.57;74.23
5812;BME280;2932;52.400;9.558;2023-02-20T05:29:09;101210.53;;;9.68;74.21
5812;BME280;2932;52.400;9.558;2023-02-20T05:31:37;101211.50;;;9.63;74.18
5812;BME280;2932;52.400;9.558;2023-02-20T05:34:02;101216.88;;;9.86;73.79
5812;BME280;2932;52.400;9.558;2023-02-20T05:36:28;101198.31;;;9.95;73.45
5812;BME280;2932;52.400;9.558;2023-02-20T05:38:53;101192.81;;;9.95;73.80
5812;BME280;2932;52.400;9.558;2023-02-20T05:41:19;101179.47;;;9.62;74.01
5812;BME280;2932;52.400;9.558;2023-02-20T05:43:45;101180.00;;;9.47;74.59
5812;BME280;2932;52.400;9.558;2023-02-20T05:46:11;101184.06;;;9.50;74.32
5812;BME280;2932;52.400;9.558;2023-02-20T05:48:36;101178.84;;;9.74;73.72
5812;BME280;2932;52.400;9.558;2023-02-20T05:51:01;101168.13;;;9.55;74.33
5812;BME280;2932;52.400;9.558;2023-02-20T05:53:27;101165.19;;;9.69;73.70
5812;BME280;2932;52.400;9.558;2023-02-20T05:55:53;101154.91;;;9.95;73.30
5812;BME280;2932;52.400;9.558;2023-02-20T05:58:19;101168.09;;;9.98;73.49
5812;BME280;2932;52.400;9.558;2023-02-20T06:00:44;101166.97;;;9.74;73.53
5812;BME280;2932;52.400;9.558;2023-02-20T06:03:10;101157.06;;;9.73;73.79
5812;BME280;2932;52.400;9.558;2023-02-20T06:05:36;101142.72;;;9.88;73.69
5812;BME280;2932;52.400;9.558;2023-02-20T06:08:01;101144.28;;;10.23;72.86
5812;BME280;2932;52.400;9.558;2023-02-20T06:10:26;101141.19;;;10.16;72.60
5812;BME280;2932;52.400;9.558;2023-02-20T06:12:52;101144.63;;;10.04;72.36
5812;BME280;2932;52.400;9.558;2023-02-20T06:15:17;101148.09;;;9.93;73.06
5812;BME280;2932;52.400;9.558;2023-02-20T06:17:43;101144.19;;;9.94;72.84
5812;BME280;2932;52.400;9.558;2023-02-20T06:20:08;101131.84;;;9.91;73.41
5812;BME280;2932;52.400;9.558;2023-02-20T06:22:33;101134.59;;;9.91;73.52
5812;BME280;2932;52.400;9.558;2023-02-20T06:24:59;101149.06;;;9.97;73.40
5812;BME280;2932;52.400;9.558;2023-02-20T06:27:24;101140.44;;;9.98;72.78
5812;BME280;2932;52.400;9.558;2023-02-20T06:29:49;101151.03;;;9.88;73.54
5812;BME280;2932;52.400;9.558;2023-02-20T06:32:15;101141.53;;;10.06;72.76
5812;BME280;2932;52.400;9.558;2023-02-20T06:34:43;101133.97;;;9.86;73.02
5812;BME280;2932;52.400;9.558;2023-02-20T06:37:09;101142.38;;;9.98;72.95
5812;BME280;2932;52.400;9.558;2023-02-20T06:39:34;101143.72;;;9.92;73.56
5812;BME280;2932;52.400;9.558;2023-02-20T06:42:00;101149.81;;;10.06;73.13
5812;BME280;2932;52.400;9.558;2023-02-20T06:44:25;101142.38;;;9.98;72.77
5812;BME280;2932;52.400;9.558;2023-02-20T06:46:50;101140.94;;;9.92;72.90
5812;BME280;2932;52.400;9.558;2023-02-20T06:49:16;101159.09;;;10.01;73.12
5812;BME280;2932;52.400;9.558;2023-02-20T06:51:41;101143.22;;;9.90;73.29
5812;BME280;2932;52.400;9.558;2023-02-20T06:54:09;101155.47;;;9.46;74.14
5812;BME280;2932;52.400;9.558;2023-02-20T06:56:35;101157.72;;;9.69;74.19
5812;BME280;2932;52.400;9.558;2023-02-20T06:59:03;101171.72;;;9.56;73.93
5812;BME280;2932;52.400;9.558;2023-02-20T07:01:30;101167.97;;;9.43;74.17
5812;BME280;2932;52.400;9.558;2023-02-20T07:03:57;101171.34;;;9.75;73.85
5812;BME280;2932;52.400;9.558;2023-02-20T07:06:24;101163.91;;;9.58;73.84
5812;BME280;2932;52.400;9.558;2023-02-20T07:08:50;101167.81;;;9.57;74.45
5812;BME280;2932;52.400;9.558;2023-02-20T07:11:21;101172.50;;;9.65;74.20
5812;BME280;2932;52.400;9.558;2023-02-20T07:13:46;101164.84;;;9.70;73.99
5812;BME280;2932;52.400;9.558;2023-02-20T07:16:12;101158.19;;;9.72;73.70
5812;BME280;2932;52.400;9.558;2023-02-20T07:18:38;101150.25;;;9.44;74.21
5812;BME280;2932;52.400;9.558;2023-02-20T07:21:03;101149.78;;;9.59;73.92
5812;BME280;2932;52.400;9.558;2023-02-20T07:23:29;101135.59;;;9.61;73.94
5812;BME280;2932;52.400;9.558;2023-02-20T07:25:54;101143.44;;;9.50;74.43
5812;BME280;2932;52.400;9.558;2023-02-20T07:28:19;101142.31;;;9.51;74.26
5812;BME280;2932;52.400;9.558;2023-02-20T07:30:46;101133.22;;;9.42;74.09
5812;BME280;2932;52.400;9.558;2023-02-20T07:33:13;101143.94;;;9.35;74.40
5812;BME280;2932;52.400;9.558;2023-02-20T07:35:39;101144.38;;;9.63;73.78
5812;BME280;2932;52.400;9.558;2023-02-20T07:38:04;101148.59;;;9.69;73.37
5812;BME280;2932;52.400;9.558;2023-02-20T07:40:30;101148.31;;;9.53;74.03
5812;BME280;2932;52.400;9.558;2023-02-20T07:42:55;101136.47;;;9.44;73.68
5812;BME280;2932;52.400;9.558;2023-02-20T07:45:20;101163.25;;;9.44;74.47
5812;BME280;2932;52.400;9.558;2023-02-20T07:47:46;101163.09;;;9.49;74.44
5812;BME280;2932;52.400;9.558;2023-02-20T07:50:13;101149.75;;;9.68;73.92
5812;BME280;2932;52.400;9.558;2023-02-20T07:52:39;101165.69;;;9.45;74.29
5812;BME280;2932;52.400;9.558;2023-02-20T07:55:05;101165.66;;;9.88;73.42
5812;BME280;2932;52.400;9.558;2023-02-20T07:57:32;101158.84;;;9.60;73.07
5812;BME280;2932;52.400;9.558;2023-02-20T07:59:58;101150.44;;;9.48;74.25
5812;BME280;2932;52.400;9.558;2023-02-20T08:02:24;101147.00;;;9.25;74.95
5812;BME280;2932;52.400;9.558;2023-02-20T08:04:49;101148.81;;;9.47;74.52
5812;BME280;2932;52.400;9.558;2023-02-20T08:07:14;101148.28;;;9.70;73.82
5812;BME280;2932;52.400;9.558;2023-02-20T08:09:40;101145.53;;;9.70;73.42
5812;BME280;2932;52.400;9.558;2023-02-20T08:12:05;101130.25;;;9.64;73.35
5812;BME280;2932;52.400;9.558;2023-02-20T08:14:32;101141.94;;;9.79;73.01
5812;BME280;2932;52.400;9.558;2023-02-20T08:16:57;101133.34;;;9.63;72.88
5812;BME280;2932;52.400;9.558;2023-02-20T08:19:23;101124.72;;;9.64;73.87
5812;BME280;2932;52.400;9.558;2023-02-20T08:21:48;101104.88;;;9.71;73.07
5812;BME280;2932;52.400;9.558;2023-02-20T08:24:13;101124.06;;;9.76;73.36
5812;BME280;2932;52.400;9.558;2023-02-20T08:26:43;101139.34;;;9.65;73.46
5812;BME280;2932;52.400;9.558;2023-02-20T08:29:09;101121.31;;;9.67;73.36
5812;BME280;2932;52.400;9.558;2023-02-20T08:31:34;101125.50;;;9.91;72.50
5812;BME280;2932;52.400;9.558;2023-02-20T08:34:00;101118.19;;;9.86;72.83
5812;BME280;2932;52.400;9.558;2023-02-20T08:36:25;101119.66;;;9.84;72.95
5812;BME280;2932;52.400;9.558;2023-02-20T08:38:50;101117.88;;;9.88;72.51
5812;BME280;2932;52.400;9.558;2023-02-20T08:41:16;101113.47;;;9.87;72.86
5812;BME280;2932;52.400;9.558;2023-02-20T08:43:42;101111.44;;;10.04;72.75
5812;BME280;2932;52.400;9.558;2023-02-20T08:46:08;101095.97;;;9.65;73.48
5812;BME280;2932;52.400;9.558;2023-02-20T08:48:34;101108.47;;;9.72;73.56
5812;BME280;2932;52.400;9.558;2023-02-20T08:50:59;101148.28;;;9.70;73.31
5812;BME280;2932;52.400;9.558;2023-02-20T08:53:25;101105.34;;;9.90;73.21
5812;BME280;2932;52.400;9.558;2023-02-20T08:55:50;101120.97;;;9.78;73.63
5812;BME280;2932;52.400;9.558;2023-02-20T08:58:20;101122.00;;;10.11;73.17
5812;BME280;2932;52.400;9.558;2023-02-20T09:00:45;101117.50;;;9.98;73.31
5812;BME280;2932;52.400;9.558;2023-02-20T09:03:11;101110.16;;;10.02;73.83
5812;BME280;2932;52.400;9.558;2023-02-20T09:05:36;101108.66;;;10.13;73.44
5812;BME280;2932;52.400;9.558;2023-02-20T09:08:03;101125.38;;;10.34;73.36
5812;BME280;2932;52.400;9.558;2023-02-20T09:10:29;101119.88;;;10.17;73.81
5812;BME280;2932;52.400;9.558;2023-02-20T09:12:55;101114.56;;;10.41;73.36
5812;BME280;2932;52.400;9.558;2023-02-20T09:15:20;101119.47;;;9.97;74.34
5812;BME280;2932;52.400;9.558;2023-02-20T09:17:50;101103.53;;;9.94;75.17
5812;BME280;2932;52.400;9.558;2023-02-20T09:20:17;101111.56;;;10.17;74.83
5812;BME280;2932;52.400;9.558;2023-02-20T09:22:45;101127.63;;;9.77;75.64
5812;BME280;2932;52.400;9.558;2023-02-20T09:25:11;101116.00;;;10.09;75.37
5812;BME280;2932;52.400;9.558;2023-02-20T09:27:36;101089.19;;;10.01;75.44
5812;BME280;2932;52.400;9.558;2023-02-20T09:30:02;101085.59;;;10.00;75.64
5812;BME280;2932;52.400;9.558;2023-02-20T09:32:28;101098.09;;;10.07;75.70
5812;BME280;2932;52.400;9.558;2023-02-20T09:34:53;101077.94;;;10.06;75.35
5812;BME280;2932;52.400;9.558;2023-02-20T09:37:19;101095.50;;;10.10;75.78
5812;BME280;2932;52.400;9.558;2023-02-20T09:39:44;101069.28;;;9.78;76.60
5812;BME280;2932;52.400;9.558;2023-02-20T09:42:22;101094.63;;;9.89;76.90
5812;BME280;2932;52.400;9.558;2023-02-20T09:45:13;101080.88;;;10.01;76.55
5812;BME280;2932;52.400;9.558;2023-02-20T09:50:52;101056.13;;;10.13;76.65
5812;BME280;2932;52.400;9.558;2023-02-20T09:55:50;101060.38;;;10.19;76.32
5812;BME280;2932;52.400;9.558;2023-02-20T09:58:32;101057.75;;;10.14;76.33
5812;BME280;2932;52.400;9.558;2023-02-20T10:01:03;101052.09;;;10.02;76.70
5812;BME280;2932;52.400;9.558;2023-02-20T10:04:03;101077.19;;;9.97;77.19
5812;BME280;2932;52.400;9.558;2023-02-20T10:06:32;101056.97;;;10.05;77.27
5812;BME280;2932;52.400;9.558;2023-02-20T10:08:58;101059.16;;;9.91;78.01
5812;BME280;2932;52.400;9.558;2023-02-20T10:22:45;101056.47;;;10.20;77.42
5812;BME280;2932;52.400;9.558;2023-02-20T10:25:29;101038.38;;;10.23;77.36
5812;BME280;2932;52.400;9.558;2023-02-20T10:27:58;101047.69;;;10.10;78.13
5812;BME280;2932;52.400;9.558;2023-02-20T10:30:29;101045.97;;;10.34;77.19
5812;BME280;2932;52.400;9.558;2023-02-20T10:32:57;101049.75;;;9.83;78.93
5812;BME280;2932;52.400;9.558;2023-02-20T10:35:50;101043.31;;;10.09;78.13
5812;BME280;2932;52.400;9.558;2023-02-20T10:38:20;101040.81;;;9.86;78.64
5812;BME280;2932;52.400;9.558;2023-02-20T10:40:52;101049.97;;;10.08;78.58
5812;BME280;2932;52.400;9.558;2023-02-20T10:43:30;101050.88;;;9.91;79.06
5812;BME280;2932;52.400;9.558;2023-02-20T10:46:03;101053.78;;;9.94;78.96
5812;BME280;2932;52.400;9.558;2023-02-20T10:48:32;101063.50;;;10.00;78.94
5812;BME280;2932;52.400;9.558;2023-02-20T10:51:10;101064.84;;;9.94;78.95
5812;BME280;2932;52.400;9.558;2023-02-20T10:53:53;101059.50;;;9.89;79.25
5812;BME280;2932;52.400;9.558;2023-02-20T11:01:36;101059.72;;;9.67;79.83
5812;BME280;2932;52.400;9.558;2023-02-20T11:04:45;101066.13;;;9.97;79.22
5812;BME280;2932;52.400;9.558;2023-02-20T11:06:57;101072.16;;;9.99;79.06
5812;BME280;2932;52.400;9.558;2023-02-20T11:09:24;101078.84;;;9.89;80.16
5812;BME280;2932;52.400;9.558;2023-02-20T11:11:52;101065.75;;;10.07;79.13
5812;BME280;2932;52.400;9.558;2023-02-20T11:14:25;101087.78;;;9.86;79.67
5812;BME280;2932;52.400;9.558;2023-02-20T11:17:07;101089.09;;;9.89;79.78
5812;BME280;2932;52.400;9.558;2023-02-20T11:20:40;101081.81;;;10.22;79.10
5812;BME280;2932;52.400;9.558;2023-02-20T11:22:45;101086.34;;;10.27;78.50
5812;BME280;2932;52.400;9.558;2023-02-20T11:27:40;101082.94;;;10.30;79.02
5812;BME280;2932;52.400;9.558;2023-02-20T11:30:25;101054.84;;;10.19;78.95
5812;BME280;2932;52.400;9.558;2023-02-20T11:35:36;101046.25;;;10.03;79.66
5812;BME280;2932;52.400;9.558;2023-02-20T11:43:26;101065.75;;;10.07;79.56
5812;BME280;2932;52.400;9.558;2023-02-20T11:51:30;101017.41;;;9.84;80.79
5812;BME280;2932;52.400;9.558;2023-02-20T11:56:59;101038.56;;;9.80;80.82
5812;BME280;2932;52.400;9.558;2023-02-20T12:04:41;101018.56;;;9.83;81.58
5812;BME280;2932;52.400;9.558;2023-02-20T12:07:29;101035.03;;;10.00;81.14
5812;BME280;2932;52.400;9.558;2023-02-20T12:10:24;101029.56;;;9.91;81.02
5812;BME280;2932;52.400;9.558;2023-02-20T12:12:48;100996.28;;;9.79;81.50
5812;BME280;2932;52.400;9.558;2023-02-20T12:15:14;101000.47;;;9.94;81.59
5812;BME280;2932;52.400;9.558;2023-02-20T12:17:47;101024.03;;;9.91;81.76
5812;BME280;2932;52.400;9.558;2023-02-20T12:20:20;101038.56;;;9.80;82.08
5812;BME280;2932;52.400;9.558;2023-02-20T12:28:28;101019.97;;;9.97;81.90
5812;BME280;2932;52.400;9.558;2023-02-20T12:37:00;101020.44;;;9.99;83.22
5812;BME280;2932;52.400;9.558;2023-02-20T12:42:45;101025.88;;;10.17;83.61
5812;BME280;2932;52.400;9.558;2023-02-20T12:45:17;101022.09;;;9.92;84.14
5812;BME280;2932;52.400;9.558;2023-02-20T12:47:57;101020.19;;;10.13;83.91
5812;BME280;2932;52.400;9.558;2023-02-20T13:01:33;100999.53;;;10.19;85.03
5812;BME280;2932;52.400;9.558;2023-02-20T13:06:46;101009.97;;;9.76;86.74
5812;BME280;2932;52.400;9.558;2023-02-20T13:09:19;101010.91;;;10.18;85.73
5812;BME280;2932;52.400;9.558;2023-02-20T13:11:50;101032.38;;;9.83;86.19
5812;BME280;2932;52.400;9.558;2023-02-20T13:16:58;101015.28;;;10.19;85.77
5812;BME280;2932;52.400;9.558;2023-02-20T13:19:36;101014.66;;;10.13;85.69
5812;BME280;2932;52.400;9.558;2023-02-20T13:22:04;100988.03;;;10.00;85.70
5812;BME280;2932;52.400;9.558;2023-02-20T13:24:35;100983.63;;;10.08;85.86
5812;BME280;2932;52.400;9.558;2023-02-20T13:27:04;100986.72;;;10.06;85.33
5812;BME280;2932;52.400;9.558;2023-02-20T13:29:33;100990.09;;;10.12;85.32
5812;BME280;2932;52.400;9.558;2023-02-20T13:32:29;100994.44;;;10.30;85.03
5812;BME280;2932;52.400;9.558;2023-02-20T13:35:31;100989.28;;;10.41;84.65
5812;BME280;2932;52.400;9.558;2023-02-20T13:38:09;100978.47;;;10.35;85.09
5812;BME280;2932;52.400;9.558;2023-02-20T13:40:37;100978.59;;;10.39;84.93
5812;BME280;2932;52.400;9.558;2023-02-20T13:45:42;100966.03;;;10.42;85.49
5812;BME280;2932;52.400;9.558;2023-02-20T13:53:39;100989.66;;;10.39;85.58
5812;BME280;2932;52.400;9.558;2023-02-20T13:56:14;100953.00;;;10.21;85.70
5812;BME280;2932;52.400;9.558;2023-02-20T13:58:39;100951.47;;;10.32;85.97
5812;BME280;2932;52.400;9.558;2023-02-20T14:01:05;100967.38;;;10.56;85.51
5812;BME280;2932;52.400;9.558;2023-02-20T14:03:32;101027.31;;;10.52;85.09
5812;BME280;2932;52.400;9.558;2023-02-20T14:06:14;100967.16;;;10.20;86.59
5812;BME280;2932;52.400;9.558;2023-02-20T14:08:45;100971.22;;;10.22;86.50
5812;BME280;2932;52.400;9.558;2023-02-20T14:11:31;100965.03;;;10.17;87.00
5812;BME280;2932;52.400;9.558;2023-02-20T14:13:58;100958.59;;;10.04;87.84
5812;BME280;2932;52.400;9.558;2023-02-20T14:18:58;100943.09;;;10.12;87.96
5812;BME280;2932;52.400;9.558;2023-02-20T14:21:23;100953.22;;;10.37;87.41
5812;BME280;2932;52.400;9.558;2023-02-20T14:23:51;100945.44;;;10.01;88.29
5812;BME280;2932;52.400;9.558;2023-02-20T14:26:34;100928.28;;;10.16;87.92
5812;BME280;2932;52.400;9.558;2023-02-20T14:29:00;100949.78;;;9.81;88.75
5812;BME280;2932;52.400;9.558;2023-02-20T14:31:29;100941.78;;;10.18;88.44
5812;BME280;2932;52.400;9.558;2023-02-20T14:34:06;100932.09;;;10.03;88.49
5812;BME280;2932;52.400;9.558;2023-02-20T14:42:15;100937.84;;;9.98;88.92
5812;BME280;2932;52.400;9.558;2023-02-20T14:44:47;100937.78;;;10.07;88.63
5812;BME280;2932;52.400;9.558;2023-02-20T14:47:15;100950.72;;;10.44;87.51
5812;BME280;2932;52.400;9.558;2023-02-20T14:49:41;100935.34;;;10.55;87.02
5812;BME280;2932;52.400;9.558;2023-02-20T14:54:35;100942.63;;;10.10;88.39
5812;BME280;2932;52.400;9.558;2023-02-20T14:57:01;100949.44;;;10.12;88.43
5812;BME280;2932;52.400;9.558;2023-02-20T14:59:31;100951.69;;;10.19;88.33
5812;BME280;2932;52.400;9.558;2023-02-20T15:02:10;100954.28;;;10.24;88.00
5812;BME280;2932;52.400;9.558;2023-02-20T15:04:48;100955.50;;;10.56;87.29
5812;BME280;2932;52.400;9.558;2023-02-20T15:07:15;100954.16;;;10.41;87.49
5812;BME280;2932;52.400;9.558;2023-02-20T15:09:43;100955.19;;;10.37;87.16
5812;BME280;2932;52.400;9.558;2023-02-20T15:12:24;100974.47;;;10.16;88.37
5812;BME280;2932;52.400;9.558;2023-02-20T15:14:59;100966.59;;;10.35;88.10
5812;BME280;2932;52.400;9.558;2023-02-20T15:17:32;100974.66;;;10.19;87.88
5812;BME280;2932;52.400;9.558;2023-02-20T15:19:58;100975.03;;;10.00;88.63
5812;BME280;2932;52.400;9.558;2023-02-20T15:22:31;100966.00;;;9.91;89.37
5812;BME280;2932;52.400;9.558;2023-02-20T15:28:11;100987.13;;;9.96;89.27
5812;BME280;2932;52.400;9.558;2023-02-20T15:31:20;100980.34;;;10.14;88.84
5812;BME280;2932;52.400;9.558;2023-02-20T15:33:50;100979.69;;;9.88;90.08
5812;BME280;2932;52.400;9.558;2023-02-20T15:36:20;100978.34;;;9.94;89.52
5812;BME280;2932;52.400;9.558;2023-02-20T15:38:46;100972.38;;;10.21;88.46
5812;BME280;2932;52.400;9.558;2023-02-20T15:41:12;100985.50;;;9.95;89.83
5812;BME280;2932;52.400;9.558;2023-02-20T15:43:37;100975.63;;;9.85;89.52
5812;BME280;2932;52.400;9.558;2023-02-20T15:46:03;100961.97;;;10.10;88.79